sensor_id;sensor_type;location;lat;lon;timestamp;P1;durP1;ratioP1;P2;durP2;ratioP2
5333;SDS011;2689;50.954;7.116;2022-10-16T00:01:14;4.47;;;2.77;;
5333;SDS011;2689;50.954;7.116;2022-10-16T00:03:43;4.40;;;3.07;;
5333;SDS011;2689;50.954;7.116;2022-10-16T00:06:10;3.47;;;2.57;;
5333;SDS011;2689;50.954;7.116;2022-10-16T00:08:38;3.73;;;2.93;;
5333;SDS011;2689;50.954;7.116;2022-10-16T00:11:06;6.00;;;2.73;;
5333;SDS011;2689;50.954;7.116;2022-10-16T00:13:34;6.00;;;2.83;;
5333;SDS011;2689;50.954;7.116;2022-10-16T00:16:02;4.47;;;2.53;;
5333;SDS011;2689;50.954;7.116;2022-10-16T00:18:30;4.50;;;2.40;;
5333;SDS011;2689;50.954;7.116;2022-10-16T00:21:02;4.27;;;2.67;;
5333;SDS011;2689;50.954;7.116;2022-10-16T00:23:30;3.87;;;2.60;;
5333;SDS011;2689;50.954;7.116;2022-10-16T00:25:58;2.70;;;2.30;;
5333;SDS011;2689;50.954;7.116;2022-10-16T00:28:26;3.50;;;2.50;;
5333;SDS011;2689;50.954;7.116;2022-10-16T00:30:53;2.63;;;2.33;;
5333;SDS011;2689;50.954;7.116;2022-10-16T00:33:20;4.37;;;2.37;;
5333;SDS011;2689;50.954;7.116;2022-10-16T00:35:47;3.20;;;1.97;;
5333;SDS011;2689;50.954;7.116;2022-10-16T00:38:16;3.83;;;2.10;;
5333;SDS011;2689;50.954;7.116;2022-10-16T00:40:43;3.50;;;2.23;;
5333;SDS011;2689;50.954;7.116;2022-10-16T00:43:13;2.83;;;2.03;;
5333;SDS011;2689;50.954;7.116;2022-10-16T00:45:58;3.20;;;2.20;;
5333;SDS011;2689;50.954;7.116;2022-10-16T00:48:25;3.43;;;2.20;;
5333;SDS011;2689;50.954;7.116;2022-10-16T00:50:52;3.27;;;2.30;;
5333;SDS011;2689;50.954;7.116;2022-10-16T00:53:21;7.30;;;2.17;;
5333;SDS011;2689;50.954;7.116;2022-10-16T00:55:48;5.23;;;1.80;;
5333;SDS011;2689;50.954;7.116;2022-10-16T00:58:14;5.70;;;2.77;;
5333;SDS011;2689;50.954;7.116;2022-10-16T01:00:41;3.13;;;2.00;;
5333;SDS011;2689;50.954;7.116;2022-10-16T01:03:22;3.20;;;1.93;;
5333;SDS011;2689;50.954;7.116;2022-10-16T01:05:53;2.80;;;1.67;;
5333;SDS011;2689;50.954;7.116;2022-10-16T01:08:32;5.07;;;2.07;;
5333;SDS011;2689;50.954;7.116;2022-10-16T01:11:06;4.40;;;2.00;;
5333;SDS011;2689;50.954;7.116;2022-10-16T01:13:40;2.50;;;2.00;;
5333;SDS011;2689;50.954;7.116;2022-10-16T01:16:12;6.00;;;2.30;;
5333;SDS011;2689;50.954;7.116;2022-10-16T01:18:44;4.40;;;2.07;;
5333;SDS011;2689;50.954;7.116;2022-10-16T01:21:13;2.10;;;1.90;;
5333;SDS011;2689;50.954;7.116;2022-10-16T01:23:48;5.07;;;2.40;;
5333;SDS011;2689;50.954;7.116;2022-10-16T01:26:28;2.40;;;2.00;;
5333;SDS011;2689;50.954;7.116;2022-10-16T01:29:03;2.13;;;1.90;;
5333;SDS011;2689;50.954;7.116;2022-10-16T01:31:35;5.17;;;1.83;;
5333;SDS011;2689;50.954;7.116;2022-10-16T01:34:06;2.13;;;1.57;;
5333;SDS011;2689;50.954;7.116;2022-10-16T01:36:37;2.50;;;1.80;;
5333;SDS011;2689;50.954;7.116;2022-10-16T01:39:08;5.00;;;1.70;;
5333;SDS011;2689;50.954;7.116;2022-10-16T01:41:38;7.33;;;1.97;;
5333;SDS011;2689;50.954;7.116;2022-10-16T01:44:10;2.23;;;1.90;;
5333;SDS011;2689;50.954;7.116;2022-10-16T01:46:41;4.63;;;1.70;;
5333;SDS011;2689;50.954;7.116;2022-10-16T01:49:12;3.00;;;1.80;;
5333;SDS011;2689;50.954;7.116;2022-10-16T01:51:39;2.10;;;1.80;;
5333;SDS011;2689;50.954;7.116;2022-10-16T01:54:08;2.70;;;1.77;;
5333;SDS011;2689;50.954;7.116;2022-10-16T01:56:35;2.57;;;1.67;;
5333;SDS011;2689;50.954;7.116;2022-10-16T01:59:04;2.53;;;1.80;;
5333;SDS011;2689;50.954;7.116;2022-10-16T02:01:35;2.97;;;2.00;;
5333;SDS011;2689;50.954;7.116;2022-10-16T02:04:10;4.63;;;2.00;;
5333;SDS011;2689;50.954;7.116;2022-10-16T02:06:41;1.90;;;1.70;;
5333;SDS011;2689;50.954;7.116;2022-10-16T02:09:08;4.73;;;2.43;;
5333;SDS011;2689;50.954;7.116;2022-10-16T02:11:35;5.10;;;2.00;;
5333;SDS011;2689;50.954;7.116;2022-10-16T02:14:02;4.27;;;2.03;;
5333;SDS011;2689;50.954;7.116;2022-10-16T02:16:32;5.53;;;2.00;;
5333;SDS011;2689;50.954;7.116;2022-10-16T02:19:02;3.03;;;1.80;;
5333;SDS011;2689;50.954;7.116;2022-10-16T02:21:32;3.77;;;1.73;;
5333;SDS011;2689;50.954;7.116;2022-10-16T02:24:06;2.67;;;1.70;;
5333;SDS011;2689;50.954;7.116;2022-10-16T02:26:40;2.37;;;1.80;;
5333;SDS011;2689;50.954;7.116;2022-10-16T02:29:11;2.30;;;1.50;;
5333;SDS011;2689;50.954;7.116;2022-10-16T02:31:41;3.80;;;2.30;;
5333;SDS011;2689;50.954;7.116;2022-10-16T02:34:12;3.00;;;2.80;;
5333;SDS011;2689;50.954;7.116;2022-10-16T02:36:40;2.87;;;2.00;;
5333;SDS011;2689;50.954;7.116;2022-10-16T02:39:08;2.77;;;1.80;;
5333;SDS011;2689;50.954;7.116;2022-10-16T02:41:36;2.63;;;1.60;;
5333;SDS011;2689;50.954;7.116;2022-10-16T02:44:04;6.03;;;2.27;;
5333;SDS011;2689;50.954;7.116;2022-10-16T02:46:30;7.23;;;1.83;;
5333;SDS011;2689;50.954;7.116;2022-10-16T02:48:59;3.10;;;1.60;;
5333;SDS011;2689;50.954;7.116;2022-10-16T02:51:25;3.73;;;1.80;;
5333;SDS011;2689;50.954;7.116;2022-10-16T02:53:52;7.13;;;1.87;;
5333;SDS011;2689;50.954;7.116;2022-10-16T02:56:19;3.57;;;2.10;;
5333;SDS011;2689;50.954;7.116;2022-10-16T02:58:45;3.07;;;1.87;;
5333;SDS011;2689;50.954;7.116;2022-10-16T03:01:12;5.23;;;1.93;;
5333;SDS011;2689;50.954;7.116;2022-10-16T03:03:41;3.47;;;1.77;;
5333;SDS011;2689;50.954;7.116;2022-10-16T03:06:09;2.33;;;1.73;;
5333;SDS011;2689;50.954;7.116;2022-10-16T03:08:36;2.40;;;1.73;;
5333;SDS011;2689;50.954;7.116;2022-10-16T03:11:03;2.53;;;1.83;;
5333;SDS011;2689;50.954;7.116;2022-10-16T03:13:30;3.97;;;2.03;;
5333;SDS011;2689;50.954;7.116;2022-10-16T03:15:56;3.13;;;1.63;;
5333;SDS011;2689;50.954;7.116;2022-10-16T03:18:23;2.40;;;1.70;;
5333;SDS011;2689;50.954;7.116;2022-10-16T03:20:50;3.37;;;1.47;;
5333;SDS011;2689;50.954;7.116;2022-10-16T03:23:18;5.20;;;2.07;;
5333;SDS011;2689;50.954;7.116;2022-10-16T03:25:45;2.60;;;1.70;;
5333;SDS011;2689;50.954;7.116;2022-10-16T03:28:11;3.40;;;1.50;;
5333;SDS011;2689;50.954;7.116;2022-10-16T03:30:38;2.43;;;2.07;;
5333;SDS011;2689;50.954;7.116;2022-10-16T03:33:05;2.40;;;1.70;;
5333;SDS011;2689;50.954;7.116;2022-10-16T03:35:32;3.50;;;1.60;;
5333;SDS011;2689;50.954;7.116;2022-10-16T03:37:59;5.27;;;1.90;;
5333;SDS011;2689;50.954;7.116;2022-10-16T03:40:27;2.87;;;1.63;;
5333;SDS011;2689;50.954;7.116;2022-10-16T03:42:54;3.07;;;1.90;;
5333;SDS011;2689;50.954;7.116;2022-10-16T03:45:22;5.40;;;2.10;;
5333;SDS011;2689;50.954;7.116;2022-10-16T03:47:49;2.37;;;1.77;;
5333;SDS011;2689;50.954;7.116;2022-10-16T03:50:15;2.77;;;1.47;;
5333;SDS011;2689;50.954;7.116;2022-10-16T03:52:42;2.40;;;1.60;;
5333;SDS011;2689;50.954;7.116;2022-10-16T03:55:09;2.53;;;1.53;;
5333;SDS011;2689;50.954;7.116;2022-10-16T03:57:37;2.10;;;1.60;;
5333;SDS011;2689;50.954;7.116;2022-10-16T04:00:04;4.77;;;2.20;;
5333;SDS011;2689;50.954;7.116;2022-10-16T04:02:31;2.03;;;1.70;;
5333;SDS011;2689;50.954;7.116;2022-10-16T04:04:58;3.43;;;1.70;;
5333;SDS011;2689;50.954;7.116;2022-10-16T04:07:25;2.30;;;1.50;;
5333;SDS011;2689;50.954;7.116;2022-10-16T04:09:51;4.00;;;1.80;;
5333;SDS011;2689;50.954;7.116;2022-10-16T04:12:18;10.23;;;2.00;;
5333;SDS011;2689;50.954;7.116;2022-10-16T04:14:46;5.63;;;1.63;;
5333;SDS011;2689;50.954;7.116;2022-10-16T04:17:13;2.90;;;1.73;;
5333;SDS011;2689;50.954;7.116;2022-10-16T04:19:39;2.87;;;1.70;;
5333;SDS011;2689;50.954;7.116;2022-10-16T04:22:06;4.17;;;1.93;;
5333;SDS011;2689;50.954;7.116;2022-10-16T04:24:33;5.13;;;1.80;;
5333;SDS011;2689;50.954;7.116;2022-10-16T04:27:00;4.03;;;1.80;;
5333;SDS011;2689;50.954;7.116;2022-10-16T04:29:27;2.30;;;1.37;;
5333;SDS011;2689;50.954;7.116;2022-10-16T04:31:55;3.50;;;1.90;;
5333;SDS011;2689;50.954;7.116;2022-10-16T04:34:21;3.90;;;1.70;;
5333;SDS011;2689;50.954;7.116;2022-10-16T04:36:48;2.80;;;1.50;;
5333;SDS011;2689;50.954;7.116;2022-10-16T04:39:15;2.57;;;1.97;;
5333;SDS011;2689;50.954;7.116;2022-10-16T04:41:42;2.80;;;1.70;;
5333;SDS011;2689;50.954;7.116;2022-10-16T04:44:09;5.40;;;2.10;;
5333;SDS011;2689;50.954;7.116;2022-10-16T04:46:35;3.73;;;2.33;;
5333;SDS011;2689;50.954;7.116;2022-10-16T04:49:03;5.57;;;1.83;;
5333;SDS011;2689;50.954;7.116;2022-10-16T04:51:30;3.30;;;2.00;;
5333;SDS011;2689;50.954;7.116;2022-10-16T04:53:57;3.53;;;2.00;;
5333;SDS011;2689;50.954;7.116;2022-10-16T04:56:24;2.80;;;1.60;;
5333;SDS011;2689;50.954;7.116;2022-10-16T04:58:51;2.50;;;1.90;;
5333;SDS011;2689;50.954;7.116;2022-10-16T05:01:17;2.47;;;1.60;;
5333;SDS011;2689;50.954;7.116;2022-10-16T05:03:44;5.03;;;2.00;;
5333;SDS011;2689;50.954;7.116;2022-10-16T05:06:12;2.50;;;1.80;;
5333;SDS011;2689;50.954;7.116;2022-10-16T05:08:39;2.93;;;1.60;;
5333;SDS011;2689;50.954;7.116;2022-10-16T05:11:05;2.90;;;1.57;;
5333;SDS011;2689;50.954;7.116;2022-10-16T05:13:32;2.20;;;1.60;;
5333;SDS011;2689;50.954;7.116;2022-10-16T05:15:59;3.73;;;1.60;;
5333;SDS011;2689;50.954;7.116;2022-10-16T05:18:25;5.53;;;1.60;;
5333;SDS011;2689;50.954;7.116;2022-10-16T05:20:52;4.33;;;1.40;;
5333;SDS011;2689;50.954;7.116;2022-10-16T05:23:20;4.13;;;1.80;;
5333;SDS011;2689;50.954;7.116;2022-10-16T05:25:51;7.03;;;1.70;;
5333;SDS011;2689;50.954;7.116;2022-10-16T05:28:19;3.07;;;1.60;;
5333;SDS011;2689;50.954;7.116;2022-10-16T05:30:46;4.00;;;1.43;;
5333;SDS011;2689;50.954;7.116;2022-10-16T05:33:12;4.43;;;2.03;;
5333;SDS011;2689;50.954;7.116;2022-10-16T05:35:39;4.23;;;2.00;;
5333;SDS011;2689;50.954;7.116;2022-10-16T05:38:06;3.10;;;1.67;;
5333;SDS011;2689;50.954;7.116;2022-10-16T05:40:34;2.20;;;1.80;;
5333;SDS011;2689;50.954;7.116;2022-10-16T05:43:01;3.57;;;1.60;;
5333;SDS011;2689;50.954;7.116;2022-10-16T05:45:27;3.60;;;1.90;;
5333;SDS011;2689;50.954;7.116;2022-10-16T05:47:54;2.00;;;1.60;;
5333;SDS011;2689;50.954;7.116;2022-10-16T05:50:21;6.10;;;5.17;;
5333;SDS011;2689;50.954;7.116;2022-10-16T05:52:48;2.33;;;1.63;;
5333;SDS011;2689;50.954;7.116;2022-10-16T05:55:14;3.20;;;1.50;;
5333;SDS011;2689;50.954;7.116;2022-10-16T05:57:44;4.70;;;1.87;;
5333;SDS011;2689;50.954;7.116;2022-10-16T06:00:10;2.80;;;1.80;;
5333;SDS011;2689;50.954;7.116;2022-10-16T06:02:37;5.47;;;1.73;;
5333;SDS011;2689;50.954;7.116;2022-10-16T06:05:04;4.20;;;1.70;;
5333;SDS011;2689;50.954;7.116;2022-10-16T06:07:33;4.03;;;1.80;;
5333;SDS011;2689;50.954;7.116;2022-10-16T06:10:00;4.07;;;1.60;;
5333;SDS011;2689;50.954;7.116;2022-10-16T06:12:28;5.87;;;2.00;;
5333;SDS011;2689;50.954;7.116;2022-10-16T06:14:56;3.40;;;2.20;;
5333;SDS011;2689;50.954;7.116;2022-10-16T06:17:22;2.43;;;1.90;;
5333;SDS011;2689;50.954;7.116;2022-10-16T06:19:49;2.13;;;1.90;;
5333;SDS011;2689;50.954;7.116;2022-10-16T06:22:16;5.13;;;1.93;;
5333;SDS011;2689;50.954;7.116;2022-10-16T06:24:42;2.27;;;1.90;;
5333;SDS011;2689;50.954;7.116;2022-10-16T06:27:09;5.00;;;1.97;;
5333;SDS011;2689;50.954;7.116;2022-10-16T06:29:36;3.63;;;2.20;;
5333;SDS011;2689;50.954;7.116;2022-10-16T06:32:04;5.33;;;3.63;;
5333;SDS011;2689;50.954;7.116;2022-10-16T06:34:30;2.80;;;1.93;;
5333;SDS011;2689;50.954;7.116;2022-10-16T06:36:57;3.50;;;2.20;;
5333;SDS011;2689;50.954;7.116;2022-10-16T06:39:24;4.60;;;2.17;;
5333;SDS011;2689;50.954;7.116;2022-10-16T06:41:50;3.67;;;3.10;;
5333;SDS011;2689;50.954;7.116;2022-10-16T06:44:17;4.93;;;2.93;;
5333;SDS011;2689;50.954;7.116;2022-10-16T06:46:44;3.40;;;2.80;;
5333;SDS011;2689;50.954;7.116;2022-10-16T06:49:12;3.40;;;2.90;;
5333;SDS011;2689;50.954;7.116;2022-10-16T06:51:46;4.47;;;2.70;;
5333;SDS011;2689;50.954;7.116;2022-10-16T06:54:12;8.40;;;4.50;;
5333;SDS011;2689;50.954;7.116;2022-10-16T06:56:40;6.13;;;3.40;;
5333;SDS011;2689;50.954;7.116;2022-10-16T06:59:07;8.30;;;5.03;;
5333;SDS011;2689;50.954;7.116;2022-10-16T07:01:34;4.10;;;3.50;;
5333;SDS011;2689;50.954;7.116;2022-10-16T07:04:02;5.07;;;3.60;;
5333;SDS011;2689;50.954;7.116;2022-10-16T07:06:31;3.60;;;2.73;;
5333;SDS011;2689;50.954;7.116;2022-10-16T07:09:00;3.10;;;2.33;;
5333;SDS011;2689;50.954;7.116;2022-10-16T07:11:30;2.47;;;2.27;;
5333;SDS011;2689;50.954;7.116;2022-10-16T07:13:56;8.83;;;2.50;;
5333;SDS011;2689;50.954;7.116;2022-10-16T07:16:24;2.20;;;1.90;;
5333;SDS011;2689;50.954;7.116;2022-10-16T07:18:53;4.73;;;2.37;;
5333;SDS011;2689;50.954;7.116;2022-10-16T07:21:23;2.30;;;1.90;;
5333;SDS011;2689;50.954;7.116;2022-10-16T07:23:53;7.20;;;2.40;;
5333;SDS011;2689;50.954;7.116;2022-10-16T07:26:21;2.57;;;2.03;;
5333;SDS011;2689;50.954;7.116;2022-10-16T07:28:48;5.57;;;2.50;;
5333;SDS011;2689;50.954;7.116;2022-10-16T07:31:15;6.00;;;3.90;;
5333;SDS011;2689;50.954;7.116;2022-10-16T07:33:44;6.40;;;4.60;;
5333;SDS011;2689;50.954;7.116;2022-10-16T07:36:13;4.57;;;2.03;;
5333;SDS011;2689;50.954;7.116;2022-10-16T07:38:40;2.33;;;1.80;;
5333;SDS011;2689;50.954;7.116;2022-10-16T07:41:10;4.33;;;2.80;;
5333;SDS011;2689;50.954;7.116;2022-10-16T07:43:38;4.87;;;2.20;;
5333;SDS011;2689;50.954;7.116;2022-10-16T07:46:05;2.50;;;1.90;;
5333;SDS011;2689;50.954;7.116;2022-10-16T07:48:33;3.63;;;2.00;;
5333;SDS011;2689;50.954;7.116;2022-10-16T07:51:01;6.27;;;2.60;;
5333;SDS011;2689;50.954;7.116;2022-10-16T07:53:29;5.80;;;2.40;;
5333;SDS011;2689;50.954;7.116;2022-10-16T07:55:57;3.90;;;2.30;;
5333;SDS011;2689;50.954;7.116;2022-10-16T07:58:25;5.10;;;1.90;;
5333;SDS011;2689;50.954;7.116;2022-10-16T08:00:52;4.93;;;2.40;;
5333;SDS011;2689;50.954;7.116;2022-10-16T08:03:19;5.20;;;2.30;;
5333;SDS011;2689;50.954;7.116;2022-10-16T08:05:46;3.80;;;1.70;;
5333;SDS011;2689;50.954;7.116;2022-10-16T08:08:13;2.87;;;1.97;;
5333;SDS011;2689;50.954;7.116;2022-10-16T08:10:41;3.03;;;1.47;;
5333;SDS011;2689;50.954;7.116;2022-10-16T08:13:08;4.20;;;1.30;;
5333;SDS011;2689;50.954;7.116;2022-10-16T08:15:36;3.07;;;1.20;;
5333;SDS011;2689;50.954;7.116;2022-10-16T08:18:04;2.63;;;1.60;;
5333;SDS011;2689;50.954;7.116;2022-10-16T08:20:31;3.90;;;1.50;;
5333;SDS011;2689;50.954;7.116;2022-10-16T08:22:59;4.07;;;1.17;;
5333;SDS011;2689;50.954;7.116;2022-10-16T08:25:26;3.43;;;2.13;;
5333;SDS011;2689;50.954;7.116;2022-10-16T08:27:54;2.90;;;1.43;;
5333;SDS011;2689;50.954;7.116;2022-10-16T08:30:22;2.87;;;1.10;;
5333;SDS011;2689;50.954;7.116;2022-10-16T08:32:51;2.10;;;0.80;;
5333;SDS011;2689;50.954;7.116;2022-10-16T08:35:18;2.03;;;0.70;;
5333;SDS011;2689;50.954;7.116;2022-10-16T08:37:45;1.63;;;0.70;;
5333;SDS011;2689;50.954;7.116;2022-10-16T08:40:15;2.10;;;0.90;;
5333;SDS011;2689;50.954;7.116;2022-10-16T08:42:52;3.13;;;0.90;;
5333;SDS011;2689;50.954;7.116;2022-10-16T08:45:34;4.77;;;1.00;;
5333;SDS011;2689;50.954;7.116;2022-10-16T08:48:15;2.33;;;1.20;;
5333;SDS011;2689;50.954;7.116;2022-10-16T08:50:49;3.13;;;1.00;;
5333;SDS011;2689;50.954;7.116;2022-10-16T08:53:18;1.80;;;0.73;;
5333;SDS011;2689;50.954;7.116;2022-10-16T08:55:50;2.30;;;0.60;;
5333;SDS011;2689;50.954;7.116;2022-10-16T08:58:18;1.20;;;0.60;;
5333;SDS011;2689;50.954;7.116;2022-10-16T09:00:47;3.30;;;1.13;;
5333;SDS011;2689;50.954;7.116;2022-10-16T09:03:21;1.77;;;0.70;;
5333;SDS011;2689;50.954;7.116;2022-10-16T09:06:00;3.20;;;0.60;;
5333;SDS011;2689;50.954;7.116;2022-10-16T09:08:52;1.40;;;0.60;;
5333;SDS011;2689;50.954;7.116;2022-10-16T09:11:33;3.17;;;0.73;;
5333;SDS011;2689;50.954;7.116;2022-10-16T09:14:15;2.13;;;0.60;;
5333;SDS011;2689;50.954;7.116;2022-10-16T09:17:03;2.30;;;0.83;;
5333;SDS011;2689;50.954;7.116;2022-10-16T09:19:39;1.57;;;0.80;;
5333;SDS011;2689;50.954;7.116;2022-10-16T09:22:12;1.73;;;0.70;;
5333;SDS011;2689;50.954;7.116;2022-10-16T09:24:41;1.97;;;0.73;;
5333;SDS011;2689;50.954;7.116;2022-10-16T09:27:08;2.50;;;0.70;;
5333;SDS011;2689;50.954;7.116;2022-10-16T09:29:37;2.50;;;0.73;;
5333;SDS011;2689;50.954;7.116;2022-10-16T09:32:07;1.10;;;0.50;;
5333;SDS011;2689;50.954;7.116;2022-10-16T09:34:40;1.63;;;0.67;;
5333;SDS011;2689;50.954;7.116;2022-10-16T09:37:10;1.53;;;0.80;;
5333;SDS011;2689;50.954;7.116;2022-10-16T09:39:46;1.47;;;0.67;;
5333;SDS011;2689;50.954;7.116;2022-10-16T09:42:14;1.30;;;0.70;;
5333;SDS011;2689;50.954;7.116;2022-10-16T09:44:46;3.07;;;0.70;;
5333;SDS011;2689;50.954;7.116;2022-10-16T09:47:16;2.60;;;0.80;;
5333;SDS011;2689;50.954;7.116;2022-10-16T09:49:52;1.30;;;0.70;;
5333;SDS011;2689;50.954;7.116;2022-10-16T09:52:22;1.40;;;0.60;;
5333;SDS011;2689;50.954;7.116;2022-10-16T09:54:49;2.50;;;0.80;;
5333;SDS011;2689;50.954;7.116;2022-10-16T09:57:17;1.80;;;0.60;;
5333;SDS011;2689;50.954;7.116;2022-10-16T09:59:48;2.07;;;0.63;;
5333;SDS011;2689;50.954;7.116;2022-10-16T10:02:16;1.50;;;0.63;;
5333;SDS011;2689;50.954;7.116;2022-10-16T10:04:46;2.40;;;0.80;;
5333;SDS011;2689;50.954;7.116;2022-10-16T10:07:18;2.33;;;0.87;;
5333;SDS011;2689;50.954;7.116;2022-10-16T10:09:49;2.30;;;0.80;;
5333;SDS011;2689;50.954;7.116;2022-10-16T10:12:17;2.00;;;0.70;;
5333;SDS011;2689;50.954;7.116;2022-10-16T10:14:47;3.83;;;0.60;;
5333;SDS011;2689;50.954;7.116;2022-10-16T10:17:17;2.07;;;0.80;;
5333;SDS011;2689;50.954;7.116;2022-10-16T10:19:52;2.20;;;0.70;;
5333;SDS011;2689;50.954;7.116;2022-10-16T10:22:25;2.00;;;0.93;;
5333;SDS011;2689;50.954;7.116;2022-10-16T10:27:50;2.13;;;0.73;;
5333;SDS011;2689;50.954;7.116;2022-10-16T10:30:35;2.10;;;0.60;;
5333;SDS011;2689;50.954;7.116;2022-10-16T10:33:16;1.53;;;0.67;;
5333;SDS011;2689;50.954;7.116;2022-10-16T10:35:51;1.67;;;0.60;;
5333;SDS011;2689;50.954;7.116;2022-10-16T10:38:32;2.23;;;0.70;;
5333;SDS011;2689;50.954;7.116;2022-10-16T10:41:13;2.83;;;0.60;;
5333;SDS011;2689;50.954;7.116;2022-10-16T10:43:55;1.30;;;0.73;;
5333;SDS011;2689;50.954;7.116;2022-10-16T10:46:31;3.60;;;1.00;;
5333;SDS011;2689;50.954;7.116;2022-10-16T10:49:04;3.37;;;0.83;;
5333;SDS011;2689;50.954;7.116;2022-10-16T10:51:55;2.10;;;0.90;;
5333;SDS011;2689;50.954;7.116;2022-10-16T10:54:35;2.43;;;0.93;;
5333;SDS011;2689;50.954;7.116;2022-10-16T10:57:08;1.50;;;0.90;;
5333;SDS011;2689;50.954;7.116;2022-10-16T10:59:59;1.43;;;0.60;;
5333;SDS011;2689;50.954;7.116;2022-10-16T11:02:35;1.80;;;0.80;;
5333;SDS011;2689;50.954;7.116;2022-10-16T11:05:11;1.17;;;0.70;;
5333;SDS011;2689;50.954;7.116;2022-10-16T11:07:48;1.40;;;0.70;;
5333;SDS011;2689;50.954;7.116;2022-10-16T11:10:20;2.17;;;0.77;;
5333;SDS011;2689;50.954;7.116;2022-10-16T11:12:51;3.10;;;0.60;;
5333;SDS011;2689;50.954;7.116;2022-10-16T11:15:21;2.07;;;0.60;;
5333;SDS011;2689;50.954;7.116;2022-10-16T11:17:53;3.20;;;0.70;;
5333;SDS011;2689;50.954;7.116;2022-10-16T11:20:25;2.93;;;0.80;;
5333;SDS011;2689;50.954;7.116;2022-10-16T11:22:56;1.50;;;0.70;;
5333;SDS011;2689;50.954;7.116;2022-10-16T11:25:27;2.63;;;0.70;;
5333;SDS011;2689;50.954;7.116;2022-10-16T11:27:56;2.17;;;0.70;;
5333;SDS011;2689;50.954;7.116;2022-10-16T11:30:28;3.93;;;0.80;;
5333;SDS011;2689;50.954;7.116;2022-10-16T11:33:10;2.03;;;0.97;;
5333;SDS011;2689;50.954;7.116;2022-10-16T11:35:51;2.43;;;0.90;;
5333;SDS011;2689;50.954;7.116;2022-10-16T11:38:24;2.97;;;0.80;;
5333;SDS011;2689;50.954;7.116;2022-10-16T11:40:54;2.13;;;1.00;;
5333;SDS011;2689;50.954;7.116;2022-10-16T11:43:26;2.70;;;0.90;;
5333;SDS011;2689;50.954;7.116;2022-10-16T11:45:58;1.87;;;0.70;;
5333;SDS011;2689;50.954;7.116;2022-10-16T11:48:31;4.17;;;0.90;;
5333;SDS011;2689;50.954;7.116;2022-10-16T11:51:06;1.67;;;0.80;;
5333;SDS011;2689;50.954;7.116;2022-10-16T11:53:42;2.50;;;0.93;;
5333;SDS011;2689;50.954;7.116;2022-10-16T11:56:13;1.57;;;0.60;;
5333;SDS011;2689;50.954;7.116;2022-10-16T11:58:46;2.00;;;0.70;;
5333;SDS011;2689;50.954;7.116;2022-10-16T12:01:21;5.73;;;0.80;;
5333;SDS011;2689;50.954;7.116;2022-10-16T12:03:56;2.30;;;1.10;;
5333;SDS011;2689;50.954;7.116;2022-10-16T12:06:31;2.23;;;0.80;;
5333;SDS011;2689;50.954;7.116;2022-10-16T12:09:01;1.53;;;0.90;;
5333;SDS011;2689;50.954;7.116;2022-10-16T12:11:35;2.93;;;0.90;;
5333;SDS011;2689;50.954;7.116;2022-10-16T12:14:04;2.00;;;0.80;;
5333;SDS011;2689;50.954;7.116;2022-10-16T12:16:52;1.50;;;0.60;;
5333;SDS011;2689;50.954;7.116;2022-10-16T12:19:21;6.63;;;0.93;;
5333;SDS011;2689;50.954;7.116;2022-10-16T12:21:49;2.30;;;0.90;;
5333;SDS011;2689;50.954;7.116;2022-10-16T12:24:21;3.43;;;1.03;;
5333;SDS011;2689;50.954;7.116;2022-10-16T12:26:57;5.53;;;3.27;;
5333;SDS011;2689;50.954;7.116;2022-10-16T12:29:28;6.30;;;4.70;;
5333;SDS011;2689;50.954;7.116;2022-10-16T12:31:59;3.60;;;2.70;;
5333;SDS011;2689;50.954;7.116;2022-10-16T12:34:27;5.10;;;1.30;;
5333;SDS011;2689;50.954;7.116;2022-10-16T12:36:56;2.97;;;1.40;;
5333;SDS011;2689;50.954;7.116;2022-10-16T12:39:35;7.63;;;1.07;;
5333;SDS011;2689;50.954;7.116;2022-10-16T12:42:05;1.40;;;0.70;;
5333;SDS011;2689;50.954;7.116;2022-10-16T12:44:45;1.60;;;0.70;;
5333;SDS011;2689;50.954;7.116;2022-10-16T12:47:18;1.90;;;0.93;;
5333;SDS011;2689;50.954;7.116;2022-10-16T12:49:48;2.70;;;0.87;;
5333;SDS011;2689;50.954;7.116;2022-10-16T12:52:24;2.30;;;0.60;;
5333;SDS011;2689;50.954;7.116;2022-10-16T12:54:55;2.23;;;1.20;;
5333;SDS011;2689;50.954;7.116;2022-10-16T12:57:34;2.13;;;0.70;;
5333;SDS011;2689;50.954;7.116;2022-10-16T13:00:12;2.03;;;0.70;;
5333;SDS011;2689;50.954;7.116;2022-10-16T13:05:54;3.10;;;0.80;;
5333;SDS011;2689;50.954;7.116;2022-10-16T13:08:39;3.20;;;0.80;;
5333;SDS011;2689;50.954;7.116;2022-10-16T13:11:22;2.10;;;1.00;;
5333;SDS011;2689;50.954;7.116;2022-10-16T13:14:01;1.80;;;0.70;;
5333;SDS011;2689;50.954;7.116;2022-10-16T13:16:40;1.50;;;0.70;;
5333;SDS011;2689;50.954;7.116;2022-10-16T13:19:17;2.23;;;0.70;;
5333;SDS011;2689;50.954;7.116;2022-10-16T13:21:51;3.77;;;0.90;;
5333;SDS011;2689;50.954;7.116;2022-10-16T13:24:27;2.60;;;1.07;;
5333;SDS011;2689;50.954;7.116;2022-10-16T13:27:07;2.47;;;0.60;;
5333;SDS011;2689;50.954;7.116;2022-10-16T13:29:39;2.50;;;0.60;;
5333;SDS011;2689;50.954;7.116;2022-10-16T13:32:07;2.23;;;0.90;;
5333;SDS011;2689;50.954;7.116;2022-10-16T13:34:43;1.73;;;0.60;;
5333;SDS011;2689;50.954;7.116;2022-10-16T13:37:16;1.20;;;0.70;;
5333;SDS011;2689;50.954;7.116;2022-10-16T13:39:44;1.47;;;0.70;;
5333;SDS011;2689;50.954;7.116;2022-10-16T13:42:14;3.07;;;0.80;;
5333;SDS011;2689;50.954;7.116;2022-10-16T13:44:47;2.23;;;0.60;;
5333;SDS011;2689;50.954;7.116;2022-10-16T13:47:16;1.60;;;0.60;;
5333;SDS011;2689;50.954;7.116;2022-10-16T13:49:44;5.23;;;1.20;;
5333;SDS011;2689;50.954;7.116;2022-10-16T13:52:18;5.70;;;1.13;;
5333;SDS011;2689;50.954;7.116;2022-10-16T13:54:46;3.23;;;0.90;;
5333;SDS011;2689;50.954;7.116;2022-10-16T13:57:13;4.10;;;1.07;;
5333;SDS011;2689;50.954;7.116;2022-10-16T13:59:41;1.47;;;0.73;;
5333;SDS011;2689;50.954;7.116;2022-10-16T14:02:26;1.87;;;0.70;;
5333;SDS011;2689;50.954;7.116;2022-10-16T14:04:55;2.50;;;1.03;;
5333;SDS011;2689;50.954;7.116;2022-10-16T14:07:25;1.47;;;0.70;;
5333;SDS011;2689;50.954;7.116;2022-10-16T14:09:53;4.97;;;1.00;;
5333;SDS011;2689;50.954;7.116;2022-10-16T14:12:20;2.30;;;0.70;;
5333;SDS011;2689;50.954;7.116;2022-10-16T14:14:49;1.20;;;0.70;;
5333;SDS011;2689;50.954;7.116;2022-10-16T14:17:19;2.60;;;1.03;;
5333;SDS011;2689;50.954;7.116;2022-10-16T14:19:49;2.23;;;0.90;;
5333;SDS011;2689;50.954;7.116;2022-10-16T14:22:21;6.63;;;0.77;;
5333;SDS011;2689;50.954;7.116;2022-10-16T14:24:55;2.23;;;0.90;;
5333;SDS011;2689;50.954;7.116;2022-10-16T14:27:27;1.23;;;0.77;;
5333;SDS011;2689;50.954;7.116;2022-10-16T14:32:54;1.30;;;0.80;;
5333;SDS011;2689;50.954;7.116;2022-10-16T14:35:23;2.57;;;1.10;;
5333;SDS011;2689;50.954;7.116;2022-10-16T14:37:52;5.50;;;0.97;;
5333;SDS011;2689;50.954;7.116;2022-10-16T14:40:20;6.10;;;1.30;;
5333;SDS011;2689;50.954;7.116;2022-10-16T14:42:49;2.50;;;1.00;;
5333;SDS011;2689;50.954;7.116;2022-10-16T14:45:18;2.53;;;1.30;;
5333;SDS011;2689;50.954;7.116;2022-10-16T14:47:47;2.10;;;1.10;;
5333;SDS011;2689;50.954;7.116;2022-10-16T14:50:17;2.20;;;1.00;;
5333;SDS011;2689;50.954;7.116;2022-10-16T14:52:44;1.30;;;0.80;;
5333;SDS011;2689;50.954;7.116;2022-10-16T14:55:11;3.30;;;1.50;;
5333;SDS011;2689;50.954;7.116;2022-10-16T14:57:38;3.77;;;1.00;;
5333;SDS011;2689;50.954;7.116;2022-10-16T15:00:08;1.63;;;0.80;;
5333;SDS011;2689;50.954;7.116;2022-10-16T15:02:41;2.60;;;0.90;;
5333;SDS011;2689;50.954;7.116;2022-10-16T15:05:11;5.80;;;1.00;;
5333;SDS011;2689;50.954;7.116;2022-10-16T15:07:41;1.47;;;0.83;;
5333;SDS011;2689;50.954;7.116;2022-10-16T15:10:08;3.47;;;1.30;;
5333;SDS011;2689;50.954;7.116;2022-10-16T15:12:35;1.40;;;0.70;;
5333;SDS011;2689;50.954;7.116;2022-10-16T15:15:05;3.43;;;1.20;;
5333;SDS011;2689;50.954;7.116;2022-10-16T15:17:51;2.30;;;0.70;;
5333;SDS011;2689;50.954;7.116;2022-10-16T15:20:20;3.17;;;1.20;;
5333;SDS011;2689;50.954;7.116;2022-10-16T15:22:48;3.87;;;1.30;;
5333;SDS011;2689;50.954;7.116;2022-10-16T15:25:18;1.47;;;1.03;;
5333;SDS011;2689;50.954;7.116;2022-10-16T15:28:00;2.70;;;1.40;;
5333;SDS011;2689;50.954;7.116;2022-10-16T15:30:29;2.73;;;1.03;;
5333;SDS011;2689;50.954;7.116;2022-10-16T15:32:56;3.70;;;1.10;;
5333;SDS011;2689;50.954;7.116;2022-10-16T15:35:23;5.53;;;1.10;;
5333;SDS011;2689;50.954;7.116;2022-10-16T15:37:51;4.57;;;1.20;;
5333;SDS011;2689;50.954;7.116;2022-10-16T15:40:18;2.10;;;1.00;;
5333;SDS011;2689;50.954;7.116;2022-10-16T15:42:45;2.30;;;1.20;;